Red Fish — WDF3926 — position and weather

sailwx.info

Track history (hours):
 
Tides and Currents Weather Stations Pressure Air Temp Water Temp Dewpoint Dewpoint Depression Visibility Wind Speed Wind Dir Waves Ship Positions

Red Fish

Owner: Higman Barge Lines, Inc 1980 Post Oak Blvd., Suite 1101 Houston, Texas 77056, Orange, TX. More information available from US FCC via Universal Licensing System and Coast Guard Vessel Documentation Center.

Last reported at 2016-Jul-30 02:22 UTC. Time now 2016-Jul-31 00:21 UTC.
Position N 29°57' W 090°23'.

Length 26 m; draft 2.9 m.

Type: Towing. MMSI: 367445690.

Date/timePositionNaut miles runAvg speedWind from/ knotsBaromVisibWave heightAir tempDewpointWater temp
2016-Jul-30 02:22N 29°57' W 090°23'  
2016-Jul-24 22:22N 31°58' W 091°11'11 6.1
2016-Jul-24 20:32N 32°08' W 091°05'6 6.4
2016-Jul-24 19:33N 32°12' W 090°60'9 8.6
2016-Jul-24 18:33N 32°19' W 090°54'4 4.3
2016-Jul-24 17:33N 32°23' W 090°53'0 0.2
2016-Jul-24 16:33N 32°23' W 090°53'0 0.0
2016-Jul-24 15:33N 32°23' W 090°53'0 0.0
2016-Jul-24 14:33N 32°23' W 090°53'0 0.0
2016-Jul-24 13:33N 32°23' W 090°53'0 0.0
2016-Jul-24 12:33N 32°23' W 090°53'0 0.0
2016-Jul-24 11:33N 32°23' W 090°53'0 0.0
2016-Jul-24 10:33N 32°23' W 090°53'0 0.0
2016-Jul-24 09:33N 32°23' W 090°53'0 0.0
2016-Jul-24 08:33N 32°23' W 090°53'0 0.0
2016-Jul-24 07:33N 32°23' W 090°53'0 0.0
2016-Jul-24 06:33N 32°23' W 090°53'0 0.0
2016-Jul-24 05:33N 32°23' W 090°53'0 0.0
2016-Jul-24 04:33N 32°23' W 090°53'0 0.0
2016-Jul-24 03:33N 32°23' W 090°53'0 0.0
2016-Jul-24 02:33N 32°23' W 090°53'0 0.0
2016-Jul-24 01:33N 32°23' W 090°53'0 0.0
2016-Jul-24 00:33N 32°23' W 090°53'0 0.0
2016-Jul-23 23:33N 32°23' W 090°53'0 0.0
2016-Jul-23 22:33N 32°23' W 090°53'0 0.0
2016-Jul-23 21:33N 32°23' W 090°53'0 0.0
2016-Jul-23 20:33N 32°23' W 090°53'0 0.0
2016-Jul-23 19:33N 32°23' W 090°53'0 0.0
2016-Jul-23 18:33N 32°23' W 090°53'0 0.0
2016-Jul-23 17:33N 32°23' W 090°53'0 0.0
2016-Jul-23 16:33N 32°23' W 090°53'0 0.0
2016-Jul-23 15:33N 32°23' W 090°53'0 0.0
2016-Jul-23 14:33N 32°23' W 090°53'0 0.0
2016-Jul-23 13:33N 32°23' W 090°53'0 0.0
2016-Jul-23 12:33N 32°23' W 090°53'0 0.0
2016-Jul-23 11:33N 32°23' W 090°53'0 0.1
2016-Jul-23 10:33N 32°23' W 090°54'1 0.9
2016-Jul-23 09:33N 32°23' W 090°53'3 3.0
2016-Jul-23 08:33N 32°20' W 090°54'5 5.0
2016-Jul-23 07:33N 32°21' W 090°60'7 7.2
2016-Jul-23 06:33N 32°27' W 091°05'16 7.0
2016-Jul-23 04:17N 32°43' W 091°03'6 7.8
2016-Jul-23 03:33N 32°46' W 091°09'  
Track history (hours):
 
Tides and Currents Weather Stations Pressure Air Temp Water Temp Dewpoint Dewpoint Depression Visibility Wind Speed Wind Dir Waves Ship Positions

Red Fish

Owner: Higman Barge Lines, Inc 1980 Post Oak Blvd., Suite 1101 Houston, Texas 77056, Orange, TX. More information available from US FCC via Universal Licensing System and Coast Guard Vessel Documentation Center.

Last reported at 2016-Jul-30 02:22 UTC. Time now 2016-Jul-31 00:21 UTC.
Position N 29°57' W 090°23'.

Length 26 m; draft 2.9 m.

Type: Towing. MMSI: 367445690.

Date/timePositionNaut miles runAvg speedWind from/ knotsBaromVisibWave heightAir tempDewpointWater temp
2016-Jul-30 02:22N 29°57' W 090°23'  
2016-Jul-24 22:22N 31°58' W 091°11'11 6.1
2016-Jul-24 20:32N 32°08' W 091°05'6 6.4
2016-Jul-24 19:33N 32°12' W 090°60'9 8.6
2016-Jul-24 18:33N 32°19' W 090°54'4 4.3
2016-Jul-24 17:33N 32°23' W 090°53'0 0.2
2016-Jul-24 16:33N 32°23' W 090°53'0 0.0
2016-Jul-24 15:33N 32°23' W 090°53'0 0.0
2016-Jul-24 14:33N 32°23' W 090°53'0 0.0
2016-Jul-24 13:33N 32°23' W 090°53'0 0.0
2016-Jul-24 12:33N 32°23' W 090°53'0 0.0
2016-Jul-24 11:33N 32°23' W 090°53'0 0.0
2016-Jul-24 10:33N 32°23' W 090°53'0 0.0
2016-Jul-24 09:33N 32°23' W 090°53'0 0.0
2016-Jul-24 08:33N 32°23' W 090°53'0 0.0
2016-Jul-24 07:33N 32°23' W 090°53'0 0.0
2016-Jul-24 06:33N 32°23' W 090°53'0 0.0
2016-Jul-24 05:33N 32°23' W 090°53'0 0.0
2016-Jul-24 04:33N 32°23' W 090°53'0 0.0
2016-Jul-24 03:33N 32°23' W 090°53'0 0.0
2016-Jul-24 02:33N 32°23' W 090°53'0 0.0
2016-Jul-24 01:33N 32°23' W 090°53'0 0.0
2016-Jul-24 00:33N 32°23' W 090°53'0 0.0
2016-Jul-23 23:33N 32°23' W 090°53'0 0.0
2016-Jul-23 22:33N 32°23' W 090°53'0 0.0
2016-Jul-23 21:33N 32°23' W 090°53'0 0.0
2016-Jul-23 20:33N 32°23' W 090°53'0 0.0
2016-Jul-23 19:33N 32°23' W 090°53'0 0.0
2016-Jul-23 18:33N 32°23' W 090°53'0 0.0
2016-Jul-23 17:33N 32°23' W 090°53'0 0.0
2016-Jul-23 16:33N 32°23' W 090°53'0 0.0
2016-Jul-23 15:33N 32°23' W 090°53'0 0.0
2016-Jul-23 14:33N 32°23' W 090°53'0 0.0
2016-Jul-23 13:33N 32°23' W 090°53'0 0.0
2016-Jul-23 12:33N 32°23' W 090°53'0 0.0
2016-Jul-23 11:33N 32°23' W 090°53'0 0.1
2016-Jul-23 10:33N 32°23' W 090°54'1 0.9
2016-Jul-23 09:33N 32°23' W 090°53'3 3.0
2016-Jul-23 08:33N 32°20' W 090°54'5 5.0
2016-Jul-23 07:33N 32°21' W 090°60'7 7.2
2016-Jul-23 06:33N 32°27' W 091°05'16 7.0
2016-Jul-23 04:17N 32°43' W 091°03'6 7.8
2016-Jul-23 03:33N 32°46' W 091°09'  

Dump ship's entire track history